Time;durP1;ratioP1;P1;durP2;ratioP2;P2;SDS_P1;SDS_P2;PMS_P1;PMS_P2;Temp;Humidity;BMP_temperature;BMP_pressure;BME280_temperature;BME280_humidity;BME280_pressure;Samples;Min_cycle;Max_cycle;Signal;HPM_P1;HPM_P2
2023/03/09 00:00:10;;;;;;;20.23;12.97;;;2.40;99.90;;;;;;4957519;28;20458;-78
2023/03/09 00:02:37;;;;;;;21.40;12.80;;;2.40;99.90;;;;;;4956367;28;20839;-80
2023/03/09 00:05:05;;;;;;;18.90;12.33;;;2.40;99.90;;;;;;4958033;29;20463;-80
2023/03/09 00:07:33;;;;;;;20.20;13.17;;;2.40;99.90;;;;;;4958335;28;20939;-78
2023/03/09 00:09:59;;;;;;;19.33;13.43;;;2.40;99.90;;;;;;4958021;28;20571;-78
2023/03/09 00:12:26;;;;;;;20.45;12.75;;;2.40;99.90;;;;;;4957720;29;20204;-78
2023/03/09 00:14:53;;;;;;;23.55;13.90;;;2.50;99.90;;;;;;4957896;28;20233;-79
2023/03/09 00:17:22;;;;;;;20.40;12.33;;;2.50;99.90;;;;;;4957652;29;20201;-78
2023/03/09 00:19:49;;;;;;;17.13;11.50;;;2.60;99.90;;;;;;4957129;28;20969;-78
2023/03/09 00:22:16;;;;;;;19.60;11.50;;;2.60;99.90;;;;;;4956620;28;20427;-78
2023/03/09 00:24:46;;;;;;;17.10;10.67;;;2.60;99.90;;;;;;4957076;29;20492;-80
2023/03/09 00:27:14;;;;;;;14.30;9.73;;;2.60;99.90;;;;;;4957944;28;20463;-78
2023/03/09 00:29:41;;;;;;;18.93;11.80;;;2.60;99.90;;;;;;4957428;28;20456;-78
2023/03/09 00:32:08;;;;;;;21.67;14.00;;;2.60;99.90;;;;;;4956335;29;20443;-77
2023/03/09 00:34:37;;;;;;;18.83;12.53;;;2.50;99.90;;;;;;4957269;28;20797;-79
2023/03/09 00:37:03;;;;;;;22.33;12.33;;;2.60;99.90;;;;;;4957642;28;20431;-79
2023/03/09 00:39:30;;;;;;;18.67;11.80;;;2.40;99.90;;;;;;4957197;28;20464;-78
2023/03/09 00:41:57;;;;;;;21.80;12.68;;;2.40;99.90;;;;;;4956710;29;20842;-80
2023/03/09 00:44:24;;;;;;;22.00;13.00;;;2.20;99.90;;;;;;4956743;28;20221;-79
2023/03/09 00:46:51;;;;;;;19.60;13.55;;;2.30;99.90;;;;;;4957799;28;20511;-79
2023/03/09 00:49:18;;;;;;;17.13;11.57;;;2.40;99.90;;;;;;4956967;28;20296;-79
2023/03/09 00:51:46;;;;;;;16.75;12.05;;;2.40;99.90;;;;;;4956750;29;20838;-78
2023/03/09 00:54:14;;;;;;;17.23;10.33;;;2.50;99.90;;;;;;4957465;29;20593;-78
2023/03/09 00:56:41;;;;;;;18.83;11.83;;;2.50;99.90;;;;;;4957386;28;20449;-77
2023/03/09 00:59:08;;;;;;;22.63;13.60;;;2.40;99.90;;;;;;4957552;28;20967;-78
2023/03/09 01:01:35;;;;;;;20.37;12.93;;;2.50;99.90;;;;;;4955274;28;20975;-77
2023/03/09 01:04:03;;;;;;;20.10;12.13;;;2.50;99.90;;;;;;4956639;29;20480;-79
2023/03/09 01:06:30;;;;;;;18.47;12.07;;;2.50;99.90;;;;;;4957415;29;21001;-77
2023/03/09 01:08:58;;;;;;;21.00;12.80;;;2.40;99.90;;;;;;4966978;28;20445;-77
2023/03/09 01:11:25;;;;;;;24.17;15.50;;;2.30;99.90;;;;;;4971030;29;20486;-78
2023/03/09 01:13:53;;;;;;;21.53;13.17;;;2.40;99.90;;;;;;4972080;28;20451;-77
2023/03/09 01:16:21;;;;;;;20.83;12.93;;;2.40;99.90;;;;;;4971393;28;20462;-77
2023/03/09 01:18:48;;;;;;;25.30;14.50;;;2.50;99.90;;;;;;4972269;29;20427;-78
2023/03/09 01:21:14;;;;;;;25.63;14.60;;;2.50;99.90;;;;;;4971382;29;20248;-78
2023/03/09 01:23:41;;;;;;;26.80;17.20;;;2.50;99.90;;;;;;4971285;28;20563;-78
2023/03/09 01:26:09;;;;;;;32.00;19.23;;;2.40;99.90;;;;;;4960073;29;20427;-77
2023/03/09 01:28:37;;;;;;;38.13;20.77;;;2.30;99.90;;;;;;4955559;29;20433;-76
2023/03/09 01:31:07;;;;;;;27.57;17.70;;;2.20;99.90;;;;;;4953550;28;20961;-77
2023/03/09 01:33:34;;;;;;;42.37;22.10;;;2.20;99.90;;;;;;4954819;28;20815;-76
2023/03/09 01:36:04;;;;;;;46.22;22.73;;;2.20;99.90;;;;;;4954395;28;20594;-77
2023/03/09 01:38:31;;;;;;;52.07;24.73;;;2.10;99.90;;;;;;4954497;28;20596;-76
2023/03/09 01:40:58;;;;;;;49.03;25.02;;;2.20;99.90;;;;;;4953429;29;21015;-76
2023/03/09 01:43:34;;;;;;;47.83;24.17;;;2.20;99.90;;;;;;4954576;28;20213;-76
2023/03/09 01:46:31;;;;;;;38.43;19.83;;;2.20;99.90;;;;;;4954020;28;20219;-76
2023/03/09 01:49:04;;;;;;;38.73;20.13;;;2.30;99.90;;;;;;4954507;29;20441;-77
2023/03/09 01:51:34;;;;;;;48.47;24.30;;;2.30;99.90;;;;;;4952987;28;20467;-79
2023/03/09 01:54:03;;;;;;;40.70;22.93;;;2.40;99.90;;;;;;4954750;28;20943;-77
2023/03/09 01:56:31;;;;;;;35.37;22.70;;;2.40;99.90;;;;;;4953927;28;20439;-76
2023/03/09 01:59:01;;;;;;;35.07;21.97;;;2.40;99.90;;;;;;4954171;29;20460;-76
2023/03/09 02:01:28;;;;;;;32.50;19.17;;;2.30;99.90;;;;;;4953308;29;20503;-77
2023/03/09 02:04:01;;;;;;;38.47;20.53;;;2.20;99.90;;;;;;4953716;28;20487;-79
2023/03/09 02:06:28;;;;;;;33.40;19.27;;;2.20;99.90;;;;;;4954040;28;20782;-77
2023/03/09 02:09:01;;;;;;;35.25;19.30;;;2.20;99.90;;;;;;4953995;29;20460;-78
2023/03/09 02:11:28;;;;;;;36.97;21.58;;;2.20;99.90;;;;;;4934238;29;20212;-76
2023/03/09 02:13:55;;;;;;;29.97;18.47;;;2.30;99.90;;;;;;4949260;28;20221;-77
2023/03/09 02:16:23;;;;;;;36.10;19.23;;;2.30;99.90;;;;;;4953719;28;20441;-77
2023/03/09 02:18:50;;;;;;;31.83;18.13;;;2.20;99.90;;;;;;4952584;28;21372;-78
2023/03/09 02:21:29;;;;;;;30.30;17.87;;;2.30;99.90;;;;;;4953155;29;20462;-77
2023/03/09 02:24:06;;;;;;;27.10;16.20;;;2.30;99.90;;;;;;4953013;28;20476;-77
2023/03/09 02:26:38;;;;;;;25.90;16.80;;;2.30;99.90;;;;;;4953689;28;20879;-77
2023/03/09 02:29:07;;;;;;;30.50;18.93;;;2.30;99.90;;;;;;4953257;28;20545;-77
2023/03/09 02:31:33;;;;;;;30.37;18.87;;;2.30;99.90;;;;;;4952350;29;20981;-76
2023/03/09 02:34:00;;;;;;;32.92;17.92;;;2.30;99.90;;;;;;4953337;28;20454;-79
2023/03/09 02:36:27;;;;;;;37.20;20.52;;;2.30;99.90;;;;;;4953380;28;20216;-77
2023/03/09 02:38:54;;;;;;;31.87;18.53;;;2.30;99.90;;;;;;4953403;28;20723;-79
2023/03/09 02:41:22;;;;;;;35.37;21.87;;;2.20;99.90;;;;;;4952645;29;20467;-77
2023/03/09 02:43:53;;;;;;;30.50;19.58;;;2.30;99.90;;;;;;4952560;28;20458;-77
2023/03/09 02:46:22;;;;;;;29.67;18.43;;;2.40;99.90;;;;;;4953375;28;20271;-76
2023/03/09 02:48:48;;;;;;;28.90;17.80;;;2.40;99.90;;;;;;4952796;29;20435;-77
2023/03/09 02:51:15;;;;;;;32.20;19.33;;;2.50;99.90;;;;;;4952320;28;20534;-78
2023/03/09 02:53:42;;;;;;;26.07;17.13;;;2.60;99.90;;;;;;4952368;28;20472;-77
2023/03/09 02:56:09;;;;;;;27.27;17.13;;;2.60;99.90;;;;;;4953384;28;20448;-77
2023/03/09 02:58:36;;;;;;;30.17;18.70;;;2.60;99.90;;;;;;4949735;28;20442;-76
2023/03/09 03:01:02;;;;;;;25.87;16.30;;;2.70;99.90;;;;;;4948476;29;20825;-76
2023/03/09 03:03:31;;;;;;;31.30;18.30;;;2.60;99.90;;;;;;4952337;28;20480;-78
2023/03/09 03:05:58;;;;;;;28.70;17.80;;;2.60;99.90;;;;;;4952917;28;20437;-78
2023/03/09 03:08:25;;;;;;;29.80;18.47;;;2.70;99.90;;;;;;4951291;28;20457;-77
2023/03/09 03:10:52;;;;;;;32.37;18.73;;;2.70;99.90;;;;;;4951974;28;20785;-77
2023/03/09 03:13:18;;;;;;;28.90;18.30;;;2.70;99.90;;;;;;4952979;28;20460;-78
2023/03/09 03:15:45;;;;;;;29.33;18.43;;;2.70;99.90;;;;;;4953096;28;21120;-76
2023/03/09 03:18:12;;;;;;;33.07;17.13;;;2.70;99.90;;;;;;4952620;29;20456;-77
2023/03/09 03:20:40;;;;;;;35.00;19.23;;;2.70;99.90;;;;;;4951825;29;20468;-76
2023/03/09 03:23:07;;;;;;;30.17;17.57;;;2.70;99.90;;;;;;4952801;28;20835;-76
2023/03/09 03:25:35;;;;;;;27.87;18.13;;;2.80;99.90;;;;;;4953086;29;20459;-76
2023/03/09 03:28:02;;;;;;;32.10;17.63;;;2.70;99.90;;;;;;4952967;28;20457;-78
2023/03/09 03:30:29;;;;;;;34.73;19.27;;;2.80;99.90;;;;;;4952498;28;20444;-75
2023/03/09 03:32:56;;;;;;;34.83;18.90;;;2.70;99.90;;;;;;4952045;28;20792;-77
2023/03/09 03:35:23;;;;;;;37.33;19.07;;;2.70;99.90;;;;;;4953127;28;20477;-78
2023/03/09 03:37:52;;;;;;;41.27;21.07;;;2.60;99.90;;;;;;4952496;28;21162;-77
2023/03/09 03:40:19;;;;;;;32.00;18.70;;;2.40;99.90;;;;;;4952364;29;20463;-77
2023/03/09 03:42:46;;;;;;;31.13;19.60;;;2.50;99.90;;;;;;4951240;29;20476;-76
2023/03/09 03:45:13;;;;;;;30.23;18.13;;;2.40;99.90;;;;;;4952553;28;20484;-77
2023/03/09 03:47:40;;;;;;;32.87;19.17;;;2.40;99.90;;;;;;4951969;28;20434;-77
2023/03/09 03:50:08;;;;;;;29.50;17.43;;;2.60;99.90;;;;;;4952350;28;21007;-79
2023/03/09 03:52:35;;;;;;;40.47;21.17;;;2.70;99.90;;;;;;4951560;28;20895;-77
2023/03/09 03:55:03;;;;;;;30.40;18.20;;;2.60;99.90;;;;;;4954907;28;20479;-77
2023/03/09 03:57:30;;;;;;;36.83;20.27;;;2.60;99.90;;;;;;4956442;29;20887;-77
2023/03/09 03:59:57;;;;;;;32.20;20.10;;;2.50;99.90;;;;;;4956528;28;20433;-76
2023/03/09 04:02:23;;;;;;;29.10;18.00;;;2.60;99.90;;;;;;4954773;28;20465;-77
2023/03/09 04:04:50;;;;;;;34.97;18.80;;;2.70;99.90;;;;;;4956115;28;20454;-77
2023/03/09 04:07:17;;;;;;;41.60;21.30;;;2.70;99.90;;;;;;4955570;28;20464;-77
2023/03/09 04:09:44;;;;;;;33.70;20.93;;;2.60;99.90;;;;;;4953517;29;20456;-77
2023/03/09 04:12:12;;;;;;;36.60;21.40;;;2.60;99.90;;;;;;4954955;28;20811;-77
2023/03/09 04:14:39;;;;;;;36.53;21.33;;;2.60;99.90;;;;;;4955207;29;20537;-77
2023/03/09 04:17:06;;;;;;;37.00;18.77;;;2.70;99.90;;;;;;4955782;29;20427;-77
2023/03/09 04:19:33;;;;;;;39.77;23.10;;;2.50;99.90;;;;;;4954750;29;20463;-77
2023/03/09 04:22:00;;;;;;;51.57;23.33;;;2.40;99.90;;;;;;4954538;28;20569;-76
2023/03/09 04:24:26;;;;;;;49.93;23.33;;;2.30;99.90;;;;;;4994902;23;20476;-83
2023/03/09 04:26:53;;;;;;;51.40;24.00;;;2.30;99.90;;;;;;5007840;28;20429;-82
2023/03/09 04:29:21;;;;;;;40.77;21.97;;;2.30;99.90;;;;;;5009122;28;20428;-81
2023/03/09 04:31:48;;;;;;;47.10;24.03;;;2.40;99.90;;;;;;5006451;28;20440;-82
2023/03/09 04:34:15;;;;;;;45.33;22.63;;;2.20;99.90;;;;;;5018143;28;20484;-82
2023/03/09 04:36:42;;;;;;;36.90;19.70;;;2.30;99.90;;;;;;4995015;28;20435;-82
2023/03/09 04:39:09;;;;;;;44.13;22.50;;;2.40;99.90;;;;;;4989412;28;20469;-80
2023/03/09 04:41:36;;;;;;;43.87;21.23;;;2.40;99.90;;;;;;4988496;28;20238;-80
2023/03/09 04:44:03;;;;;;;36.40;19.40;;;2.40;99.90;;;;;;4986766;28;20900;-81
2023/03/09 04:46:32;;;;;;;37.13;19.50;;;2.50;99.90;;;;;;4978554;28;20502;-81
2023/03/09 04:48:58;;;;;;;42.77;20.23;;;2.50;99.90;;;;;;4984525;28;20513;-81
2023/03/09 04:51:25;;;;;;;39.73;22.20;;;2.50;99.90;;;;;;4987784;28;20531;-79
2023/03/09 04:53:52;;;;;;;44.17;23.17;;;2.50;99.90;;;;;;4983277;28;20505;-82
2023/03/09 04:56:19;;;;;;;37.07;19.27;;;2.50;99.90;;;;;;4979329;28;20543;-81
2023/03/09 04:58:45;;;;;;;42.90;21.33;;;2.50;99.90;;;;;;4984673;28;20451;-80
2023/03/09 05:01:12;;;;;;;37.77;20.57;;;2.60;99.90;;;;;;4983887;28;20451;-82
2023/03/09 05:03:41;;;;;;;39.27;21.53;;;2.70;99.90;;;;;;4980957;28;20494;-81
2023/03/09 05:06:08;;;;;;;44.17;22.10;;;2.50;99.90;;;;;;4977758;28;20473;-82
2023/03/09 05:08:35;;;;;;;40.97;20.93;;;2.60;99.90;;;;;;4985589;28;20552;-81
2023/03/09 05:11:02;;;;;;;36.47;19.10;;;2.70;99.90;;;;;;4978149;28;20451;-80
2023/03/09 05:13:29;;;;;;;43.03;23.17;;;2.70;99.90;;;;;;4984627;28;20452;-82
2023/03/09 05:15:55;;;;;;;39.70;22.03;;;2.70;99.90;;;;;;4985430;28;20479;-81
2023/03/09 05:18:22;;;;;;;46.50;24.90;;;2.80;99.90;;;;;;4976548;28;20426;-80
2023/03/09 05:20:50;;;;;;;47.30;26.47;;;2.70;99.90;;;;;;4986259;28;20435;-81
2023/03/09 05:23:17;;;;;;;34.87;20.10;;;2.60;99.90;;;;;;4982963;28;20462;-81
2023/03/09 05:25:44;;;;;;;52.73;25.23;;;2.70;99.90;;;;;;4983622;28;20458;-81
2023/03/09 05:28:12;;;;;;;50.87;22.97;;;2.60;99.90;;;;;;4981449;28;20941;-79
2023/03/09 05:30:40;;;;;;;47.57;24.20;;;2.60;99.90;;;;;;4986514;28;20451;-81
2023/03/09 05:33:07;;;;;;;58.37;27.70;;;2.70;99.90;;;;;;4987181;28;20429;-82
2023/03/09 05:35:34;;;;;;;73.40;30.17;;;2.40;99.90;;;;;;4977282;28;20489;-80
2023/03/09 05:38:02;;;;;;;66.17;27.10;;;2.40;99.90;;;;;;4977649;28;20458;-82
2023/03/09 05:40:29;;;;;;;52.97;26.07;;;2.20;99.90;;;;;;4977309;28;20429;-80
2023/03/09 05:42:55;;;;;;;60.03;27.00;;;2.20;99.90;;;;;;4979055;28;21236;-82
2023/03/09 05:45:22;;;;;;;67.60;31.40;;;2.30;99.90;;;;;;4978951;28;20478;-82
2023/03/09 05:47:49;;;;;;;49.93;25.80;;;2.30;99.90;;;;;;4991401;28;20840;-80
2023/03/09 05:50:16;;;;;;;50.97;24.40;;;2.30;99.90;;;;;;4996872;28;20451;-82
2023/03/09 05:52:44;;;;;;;55.10;26.47;;;2.40;99.90;;;;;;4980121;28;20422;-81
2023/03/09 05:55:12;;;;;;;53.30;26.73;;;2.40;99.90;;;;;;4977549;28;20446;-81
2023/03/09 05:57:39;;;;;;;63.77;28.73;;;2.50;99.90;;;;;;5006660;28;20807;-82
2023/03/09 06:00:09;;;;;;;50.43;23.50;;;2.50;99.90;;;;;;5018113;28;20460;-82
2023/03/09 06:02:36;;;;;;;64.47;26.33;;;2.60;99.90;;;;;;4982938;28;20487;-83
2023/03/09 06:05:03;;;;;;;51.97;25.50;;;2.50;99.90;;;;;;4981351;28;20553;-83
2023/03/09 06:07:31;;;;;;;47.20;25.07;;;2.50;99.90;;;;;;5014368;28;20489;-83
2023/03/09 06:09:57;;;;;;;54.07;24.13;;;2.60;99.90;;;;;;5020429;28;20436;-81
2023/03/09 06:12:26;;;;;;;51.60;26.70;;;2.70;99.90;;;;;;4987419;28;20490;-80
2023/03/09 06:14:53;;;;;;;48.83;24.03;;;2.70;99.90;;;;;;4981141;28;20446;-82
2023/03/09 06:17:20;;;;;;;50.43;24.53;;;2.80;99.90;;;;;;4978664;28;20437;-82
2023/03/09 06:19:47;;;;;;;42.00;23.30;;;2.80;99.90;;;;;;4978535;28;20457;-82
2023/03/09 06:22:14;;;;;;;51.13;27.77;;;2.80;99.90;;;;;;4977793;28;20585;-82
2023/03/09 06:24:42;;;;;;;61.70;25.10;;;2.80;99.90;;;;;;4984643;28;20465;-80
2023/03/09 06:27:08;;;;;;;53.43;26.30;;;2.90;99.90;;;;;;4977021;28;20510;-80
2023/03/09 06:29:37;;;;;;;53.90;25.67;;;2.90;99.90;;;;;;4997356;28;20524;-80
2023/03/09 06:32:04;;;;;;;46.50;22.83;;;2.90;99.90;;;;;;4997571;28;20433;-81
2023/03/09 06:34:31;;;;;;;57.30;25.67;;;3.00;99.90;;;;;;4987669;28;20479;-81
2023/03/09 06:36:58;;;;;;;54.63;24.83;;;2.90;99.90;;;;;;4977217;28;20455;-80
2023/03/09 06:39:25;;;;;;;49.63;24.20;;;2.90;99.90;;;;;;5010908;28;20552;-82
2023/03/09 06:41:51;;;;;;;44.77;23.17;;;3.00;99.90;;;;;;5015266;28;20454;-82
2023/03/09 06:44:18;;;;;;;53.37;25.67;;;3.00;99.90;;;;;;4978559;28;20487;-79
2023/03/09 06:46:46;;;;;;;60.77;26.40;;;3.10;99.90;;;;;;4941000;28;20434;-79
2023/03/09 06:49:13;;;;;;;50.50;24.03;;;3.00;99.90;;;;;;4975634;28;20794;-84
2023/03/09 06:51:40;;;;;;;54.17;26.20;;;3.00;99.90;;;;;;4993952;28;20480;-84
2023/03/09 06:54:07;;;;;;;49.13;24.00;;;3.00;99.90;;;;;;4980734;28;20471;-83
2023/03/09 06:56:34;;;;;;;60.20;24.37;;;3.00;99.90;;;;;;4977202;28;20956;-89
2023/03/09 06:59:01;;;;;;;55.63;26.80;;;3.10;99.90;;;;;;4980291;28;20467;-83
2023/03/09 07:01:27;;;;;;;50.77;21.93;;;3.10;99.90;;;;;;5005336;28;20437;-83
2023/03/09 07:03:56;;;;;;;51.23;24.90;;;3.20;99.90;;;;;;4988459;28;21118;-83
2023/03/09 07:06:22;;;;;;;41.40;23.00;;;3.30;99.90;;;;;;4992035;28;20462;-83
2023/03/09 07:08:49;;;;;;;49.90;24.40;;;3.40;99.90;;;;;;5010572;28;20482;-83
2023/03/09 07:11:16;;;;;;;57.30;25.00;;;3.50;99.90;;;;;;4986256;28;20459;-83
2023/03/09 07:13:43;;;;;;;51.50;22.93;;;3.50;99.90;;;;;;4985323;28;20822;-83
2023/03/09 07:16:10;;;;;;;48.83;21.23;;;3.60;99.90;;;;;;4998914;28;20495;-82
2023/03/09 07:18:36;;;;;;;44.27;22.50;;;3.60;99.90;;;;;;5007784;28;20989;-81
2023/03/09 07:21:05;;;;;;;37.77;22.17;;;3.70;99.90;;;;;;4989726;28;20483;-84
2023/03/09 07:23:32;;;;;;;53.17;26.27;;;3.70;99.90;;;;;;4995998;28;20472;-84
2023/03/09 07:26:00;;;;;;;42.03;23.73;;;3.60;99.90;;;;;;4996727;28;20845;-84
2023/03/09 07:28:27;;;;;;;41.73;21.07;;;3.60;99.90;;;;;;4981155;28;20466;-83
2023/03/09 07:30:55;;;;;;;48.20;24.47;;;3.80;99.90;;;;;;5001408;28;20451;-85
2023/03/09 07:33:22;;;;;;;49.47;25.37;;;3.90;99.90;;;;;;4997468;28;20452;-85
2023/03/09 07:35:49;;;;;;;45.23;23.17;;;3.80;99.90;;;;;;4984414;28;20460;-84
2023/03/09 07:38:17;;;;;;;60.47;27.33;;;3.80;99.90;;;;;;4983624;28;20527;-83
2023/03/09 07:40:44;;;;;;;51.07;22.87;;;3.70;99.90;;;;;;5007049;28;20473;-83
2023/03/09 07:43:12;;;;;;;52.50;21.07;;;3.80;99.90;;;;;;5005886;28;20474;-83
2023/03/09 07:45:42;;;;;;;49.70;23.03;;;3.90;99.90;;;;;;5022285;28;20471;-84
2023/03/09 07:48:11;;;;;;;45.37;20.87;;;3.90;99.90;;;;;;5018370;28;20513;-83
2023/03/09 07:50:41;;;;;;;49.10;22.03;;;4.10;99.90;;;;;;5000954;28;20780;-81
2023/03/09 07:53:09;;;;;;;62.13;26.10;;;4.00;99.90;;;;;;5009028;28;20532;-85
2023/03/09 07:55:37;;;;;;;52.97;24.10;;;3.90;99.90;;;;;;5001829;28;20470;-84
2023/03/09 07:58:05;;;;;;;64.77;28.60;;;3.80;99.90;;;;;;4997215;28;20539;-83
2023/03/09 08:00:32;;;;;;;59.93;26.70;;;3.90;99.90;;;;;;4993017;28;20456;-81
2023/03/09 08:03:00;;;;;;;55.43;26.17;;;3.70;99.90;;;;;;5010080;28;20488;-85
2023/03/09 08:05:28;;;;;;;62.63;24.93;;;3.70;99.90;;;;;;4993492;28;20456;-85
2023/03/09 08:07:55;;;;;;;60.30;25.83;;;3.70;99.90;;;;;;5006163;28;20454;-84
2023/03/09 08:10:23;;;;;;;54.87;25.40;;;3.80;99.90;;;;;;4992653;28;20457;-83
2023/03/09 08:12:51;;;;;;;53.23;25.43;;;3.80;99.90;;;;;;4981032;28;20474;-84
2023/03/09 08:15:20;;;;;;;59.73;25.87;;;3.60;99.90;;;;;;4990050;28;20481;-84
2023/03/09 08:17:47;;;;;;;49.10;23.97;;;3.80;99.90;;;;;;4999156;28;20436;-82
2023/03/09 08:20:14;;;;;;;45.20;24.17;;;3.90;99.90;;;;;;4993531;28;20459;-84
2023/03/09 08:22:41;;;;;;;52.60;24.60;;;4.10;99.90;;;;;;4983116;28;20488;-85
2023/03/09 08:25:09;;;;;;;58.37;24.13;;;4.20;99.90;;;;;;4987238;28;20462;-85
2023/03/09 08:27:41;;;;;;;48.20;26.17;;;4.30;99.90;;;;;;4991076;28;20461;-84
2023/03/09 08:30:12;;;;;;;63.60;28.40;;;4.20;99.90;;;;;;4987231;28;20453;-84
2023/03/09 08:32:39;;;;;;;51.40;23.30;;;4.10;99.90;;;;;;4988347;28;20985;-84
2023/03/09 08:35:06;;;;;;;63.73;28.00;;;4.30;99.90;;;;;;4985727;28;20453;-83
2023/03/09 08:37:33;;;;;;;58.17;24.90;;;4.30;99.90;;;;;;4992631;28;20492;-82
2023/03/09 08:40:00;;;;;;;59.70;29.80;;;4.40;99.90;;;;;;4990435;28;20455;-82
2023/03/09 08:42:27;;;;;;;47.83;23.80;;;4.40;99.90;;;;;;4997997;28;20982;-82
2023/03/09 08:44:54;;;;;;;60.60;24.63;;;4.40;99.90;;;;;;4989799;28;20853;-82
2023/03/09 08:47:22;;;;;;;52.17;23.80;;;4.50;99.90;;;;;;4999770;28;20456;-82
2023/03/09 08:49:49;;;;;;;51.00;23.90;;;4.50;99.90;;;;;;4984108;28;20451;-83
2023/03/09 08:52:16;;;;;;;51.87;25.07;;;4.60;99.90;;;;;;4996048;28;20429;-82
2023/03/09 08:54:42;;;;;;;54.00;22.90;;;4.70;99.90;;;;;;4984262;28;20483;-80
2023/03/09 08:57:10;;;;;;;39.97;21.60;;;4.70;99.90;;;;;;4999065;28;20460;-81
2023/03/09 08:59:36;;;;;;;41.77;20.43;;;4.80;99.90;;;;;;4978793;28;20488;-83
2023/03/09 09:02:04;;;;;;;54.10;25.27;;;4.90;99.90;;;;;;4995276;28;20490;-84
2023/03/09 09:04:32;;;;;;;45.80;22.50;;;5.10;99.90;;;;;;4983732;28;20701;-83
2023/03/09 09:06:59;;;;;;;48.83;21.50;;;5.80;99.90;;;;;;5004700;28;20458;-83
2023/03/09 09:09:25;;;;;;;49.87;25.03;;;5.10;99.90;;;;;;4996690;28;20461;-83
2023/03/09 09:11:52;;;;;;;47.27;23.30;;;5.10;99.90;;;;;;4997516;28;20543;-83
2023/03/09 09:14:19;;;;;;;50.43;24.07;;;5.20;99.90;;;;;;4986701;28;20471;-82
2023/03/09 09:16:46;;;;;;;46.03;25.03;;;4.90;55.20;;;;;;4978729;28;20463;-82
2023/03/09 09:19:12;;;;;;;44.10;21.07;;;5.00;99.90;;;;;;4988864;28;20448;-82
2023/03/09 09:21:41;;;;;;;49.50;22.90;;;5.10;97.50;;;;;;4996655;28;20454;-83
2023/03/09 09:24:07;;;;;;;45.73;23.57;;;5.20;83.80;;;;;;4978117;28;20472;-83
2023/03/09 09:26:35;;;;;;;47.53;24.73;;;5.20;70.60;;;;;;4976450;28;20495;-83
2023/03/09 09:29:04;;;;;;;41.93;23.40;;;5.00;49.00;;;;;;4976529;28;20456;-83
2023/03/09 09:31:31;;;;;;;46.53;24.33;;;5.10;99.90;;;;;;4977345;28;20516;-83
2023/03/09 09:33:58;;;;;;;50.10;25.67;;;5.30;88.70;;;;;;4977027;28;20493;-82
2023/03/09 09:36:25;;;;;;;43.47;23.23;;;5.40;47.50;;;;;;4987093;28;20455;-81
2023/03/09 09:38:54;;;;;;;47.47;24.17;;;5.30;26.50;;;;;;5002933;28;20458;-82
2023/03/09 09:41:27;;;;;;;47.93;26.63;;;5.10;51.60;;;;;;4981614;28;21007;-82
2023/03/09 09:43:58;;;;;;;52.37;27.67;;;5.10;58.00;;;;;;4984456;28;20467;-83
2023/03/09 09:46:26;;;;;;;47.00;25.80;;;5.30;52.40;;;;;;4985954;28;20452;-82
2023/03/09 09:48:53;;;;;;;38.30;21.43;;;5.50;34.30;;;;;;4989348;28;20446;-84
2023/03/09 09:51:54;;;;;;;38.37;21.93;;;5.70;1.00;;;;;;4993326;28;20546;-85
2023/03/09 09:54:34;;;;;;;39.87;21.83;;;5.80;1.00;;;;;;4985832;28;20493;-83
2023/03/09 09:57:04;;;;;;;42.03;23.97;;;6.00;1.00;;;;;;5002249;28;20491;-84
2023/03/09 09:59:38;;;;;;;47.20;26.07;;;6.00;1.00;;;;;;5014010;28;20455;-84
2023/03/09 10:02:27;;;;;;;41.07;24.70;;;6.00;1.00;;;;;;4993322;28;20451;-83
2023/03/09 10:05:00;;;;;;;38.27;23.33;;;5.90;1.00;;;;;;5008706;28;20492;-84
2023/03/09 10:07:26;;;;;;;46.07;24.47;;;6.00;1.00;;;;;;4995044;28;20456;-83
2023/03/09 10:09:58;;;;;;;47.83;24.10;;;6.10;1.00;;;;;;4988958;28;20556;-81
2023/03/09 10:12:25;;;;;;;41.57;21.70;;;6.00;1.00;;;;;;5005860;28;20453;-82
2023/03/09 10:14:55;;;;;;;48.50;24.83;;;6.00;1.00;;;;;;4983549;28;21031;-82
2023/03/09 10:17:29;;;;;;;46.90;25.03;;;6.00;1.00;;;;;;5013651;28;20459;-81
2023/03/09 10:19:59;;;;;;;42.03;25.00;;;6.10;1.00;;;;;;4992201;28;20458;-81
2023/03/09 10:22:27;;;;;;;48.10;24.87;;;5.90;25.50;;;;;;4999940;28;20457;-81
2023/03/09 10:24:56;;;;;;;50.27;23.30;;;5.90;56.40;;;;;;5013593;28;20519;-82
2023/03/09 10:27:27;;;;;;;47.20;23.13;;;6.10;11.60;;;;;;5000525;28;20462;-82
2023/03/09 10:30:01;;;;;;;39.97;21.03;;;6.10;8.30;;;;;;5000648;28;20554;-82
2023/03/09 10:32:37;;;;;;;44.93;22.03;;;6.50;1.10;;;;;;4993861;28;20434;-82
2023/03/09 10:35:19;;;;;;;47.53;23.53;;;6.60;1.00;;;;;;4984607;28;20514;-82
2023/03/09 10:37:48;;;;;;;38.80;20.40;;;6.70;1.00;;;;;;4997189;28;20829;-80
2023/03/09 10:40:20;;;;;;;44.73;24.03;;;7.40;1.00;;;;;;5002379;28;20998;-82
2023/03/09 10:42:47;;;;;;;33.67;19.67;;;;;;;;;;4988937;28;20533;-82
2023/03/09 10:45:25;;;;;;;34.60;19.67;;;7.40;1.00;;;;;;4990159;28;21178;-82
2023/03/09 10:48:05;;;;;;;37.00;21.47;;;7.20;1.00;;;;;;4996528;28;20460;-82
2023/03/09 10:50:35;;;;;;;45.73;21.97;;;7.10;1.00;;;;;;4996970;28;20545;-81
2023/03/09 10:53:23;;;;;;;39.90;22.23;;;7.00;1.00;;;;;;4996036;28;20835;-82
2023/03/09 10:55:53;;;;;;;44.10;23.80;;;6.90;1.00;;;;;;4997549;28;20531;-82
2023/03/09 10:58:22;;;;;;;44.50;25.07;;;7.00;1.00;;;;;;4979270;28;20460;-82
2023/03/09 11:00:55;;;;;;;39.40;21.77;;;6.70;1.00;;;;;;4977717;28;20813;-82
2023/03/09 11:03:25;;;;;;;43.17;24.50;;;6.70;1.00;;;;;;4980940;28;20535;-82
2023/03/09 11:05:52;;;;;;;45.07;23.50;;;6.30;1.00;;;;;;4982731;28;20930;-83
2023/03/09 11:08:27;;;;;;;37.17;19.07;;;6.30;1.00;;;;;;4982393;28;20445;-83
2023/03/09 11:11:06;;;;;;;49.00;22.90;;;6.40;1.00;;;;;;4996094;28;21035;-84
2023/03/09 11:13:34;;;;;;;42.37;23.03;;;6.70;1.00;;;;;;5019986;28;20549;-82
2023/03/09 11:16:15;;;;;;;33.53;21.33;;;6.30;1.00;;;;;;4982002;28;21016;-83
2023/03/09 11:18:43;;;;;;;42.00;20.83;;;6.30;1.00;;;;;;4981851;28;20946;-84
2023/03/09 11:21:10;;;;;;;40.00;19.90;;;6.30;1.00;;;;;;4982062;28;20461;-83
2023/03/09 11:23:42;;;;;;;36.27;20.80;;;6.50;9.60;;;;;;4982156;28;20927;-84
2023/03/09 11:26:23;;;;;;;38.43;22.47;;;6.60;1.00;;;;;;4991233;28;20463;-83
2023/03/09 11:28:57;;;;;;;32.53;20.80;;;6.40;1.00;;;;;;4986165;28;20486;-84
2023/03/09 11:31:26;;;;;;;38.90;21.03;;;6.40;1.00;;;;;;4985468;28;20719;-84
2023/03/09 11:33:57;;;;;;;38.83;22.60;;;6.40;1.00;;;;;;4980024;28;20540;-83
2023/03/09 11:36:27;;;;;;;40.47;22.70;;;6.40;1.00;;;;;;4984644;28;20510;-83
2023/03/09 11:38:57;;;;;;;38.43;23.03;;;6.40;1.00;;;;;;4984159;28;20453;-83
2023/03/09 11:41:30;;;;;;;41.17;23.13;;;6.10;1.70;;;;;;4986098;28;20840;-84
2023/03/09 11:44:01;;;;;;;44.73;25.23;;;6.30;1.00;;;;;;4982319;28;20490;-84
2023/03/09 11:46:29;;;;;;;41.20;24.27;;;6.30;10.10;;;;;;4990510;28;20447;-82
2023/03/09 11:49:08;;;;;;;40.17;23.13;;;6.30;7.80;;;;;;4987619;28;20557;-84
2023/03/09 11:51:39;;;;;;;43.73;24.40;;;6.50;1.00;;;;;;4983970;28;20454;-84
2023/03/09 11:54:17;;;;;;;41.53;25.43;;;6.80;1.00;;;;;;4984525;28;20458;-84
2023/03/09 11:56:47;;;;;;;47.33;27.40;;;6.70;1.00;;;;;;4984016;28;20465;-83
2023/03/09 11:59:19;;;;;;;44.60;24.00;;;6.80;1.00;;;;;;4984619;28;20542;-84
2023/03/09 12:01:50;;;;;;;40.47;23.50;;;6.90;1.00;;;;;;4983218;28;20515;-83
2023/03/09 12:04:18;;;;;;;47.90;25.53;;;7.00;1.00;;;;;;4984038;28;20498;-84
2023/03/09 12:06:54;;;;;;;42.03;25.30;;;7.00;1.00;;;;;;4984863;28;20954;-84
2023/03/09 12:09:33;;;;;;;41.90;24.50;;;7.10;1.00;;;;;;4983905;28;20558;-83
2023/03/09 12:12:19;;;;;;;42.47;21.47;;;7.10;1.00;;;;;;4983812;28;20616;-84
2023/03/09 12:14:51;;;;;;;35.10;20.97;;;7.30;1.00;;;;;;4982691;28;20482;-84
2023/03/09 12:17:21;;;;;;;39.90;22.33;;;7.30;1.00;;;;;;4983261;28;20446;-84
2023/03/09 12:19:51;;;;;;;38.80;22.00;;;7.30;1.00;;;;;;4983549;28;20450;-83
2023/03/09 12:22:23;;;;;;;36.93;20.23;;;7.20;1.00;;;;;;4983715;28;20461;-84
2023/03/09 12:24:56;;;;;;;35.17;23.33;;;7.10;1.00;;;;;;4983488;28;20501;-84
2023/03/09 12:27:26;;;;;;;43.20;22.67;;;6.90;1.00;;;;;;4984084;28;20545;-84
2023/03/09 12:29:55;;;;;;;35.27;23.53;;;7.00;1.00;;;;;;4981711;28;20457;-84
2023/03/09 12:32:43;;;;;;;38.40;23.73;;;6.80;1.00;;;;;;4982302;28;20456;-83
2023/03/09 12:35:26;;;;;;;34.57;20.90;;;6.50;11.10;;;;;;4982586;28;21061;-84
2023/03/09 12:38:06;;;;;;;37.30;22.87;;;6.60;4.50;;;;;;4982782;28;20503;-84
2023/03/09 12:40:37;;;;;;;41.10;21.97;;;6.80;6.80;;;;;;4982194;28;20454;-83
2023/03/09 12:43:42;;;;;;;36.30;21.90;;;6.90;20.50;;;;;;4983138;28;20454;-84
2023/03/09 12:46:49;;;;;;;36.03;21.37;;;7.10;6.90;;;;;;4983114;28;20465;-84